Main page
METAR-TAF:

METAR-TAF

Airports :

Sachs Harbour (David Nasogaluak Jr. Saaryuaq) Airport

Sachs Harbour, Northwest Territories, Canada

latitude: 72-00N, longitude: 125-17W, elevation: 86 m

Current weather observation

The report was made 22 minutes ago, at 22:00 UTC
Wind 12 kt from the East/Southeast
Temperature -22°C
Humidity 64%
Pressure 1011 hPa
Visibility: 24.1 km
Few clouds at a height of 21000 ft
ice crystals

METAR: CYSY 222200Z 11012KT 15SM IC FEW210 M22/M27 A2985 RMK CI1 CI TR SLP124

Time: 15:22 (22:22 UTC)

Forecast

The report was made 3 hours and 44 minutes ago, at 18:38 UTC
Forecast valid from 22 at 19 UTC to 22 at 24 UTC
Wind 12 kt from the East/Southeast
Visibility: 10 km
Few clouds at a height of 8000 ft
Temporary
from 22 at 19 UTC to 22 at 24 UTC
Visibility: 8.0 km
ice crystals

TAF: CYSY 221838Z 2219/2224 11012KT P6SM FEW080 TEMPO 2219/2224 5SM IC RMK NXT FCST WILL BE ISSUED AT 231545Z

Weather observations and forecasts of more than 4000 airports (METAR and TAF reports).

The available stations are represented by yellow and red dots on the map.

Hover mouse over dot to see the name of the station.

Then click to see weather observations and forecasts.

To change the map : click on the green buttons with a black cross to zoom in, on the green button with a dash to zoom out, or on the green arrows for adjacent maps.


METAR-TAF: